Latest Weather Observations for Gove Airport

IDD60801

Issued at 2:01 am CST Wednesday 26 April 2017 (issued every 30 minutes, with the page automatically refreshed every 10 minutes)

About weather observations | Map of weather stations | Latest weather observations for NT | Other Formats
Station Details ID: 014508 Name: GOVE AIRPORT Lat: -12.27 Lon: 136.82 Height: 51.6 m
Data from the previous 72 hours. | See also: Recent months at Gove Airport
Date/Time
CST
Temp
°C
App
Temp
°C
Dew
Point
°C
Rel
Hum
%
Delta-T
°C
Wind Press
QNH
hPa
Press
MSL
hPa
Rain since
9am
mm
Dir  Spd
km/h
Gust
km/h
Spd
kts
Gust
kts
26/02:00am 24.9 29.0 24.5 98 0.3 ESE 11 15 6 8 1010.2 1009.8 16.8
26/01:34am 25.2 29.8 24.2 94 0.7 SSE 7 17 4 9 1010.5 1010.1 16.2
26/01:30am 25.3 30.1 24.1 93 0.8 S 6 9 3 5 1010.5 1010.1 16.2
26/01:00am 25.3 30.4 24.6 96 0.5 SSE 6 6 3 3 1010.6 1010.2 16.2
26/12:30am 25.3 30.6 24.4 95 0.6 SE 4 6 2 3 1011.0 1010.6 16.2
26/12:00am 25.3 30.2 24.4 95 0.6 SSE 6 7 3 4 1011.2 1010.8 16.2
 
Date/Time
CST
Temp
°C
App
Temp
°C
Dew
Point
°C
Rel
Hum
%
Delta-T
°C
Wind Press
QNH
hPa
Press
MSL
hPa
Rain since
9am
mm
Dir  Spd
km/h
Gust
km/h
Spd
kts
Gust
kts
25/11:30pm 25.3 30.1 24.4 95 0.6 SE 7 9 4 5 1010.9 1010.5 16.2
25/11:00pm 25.7 30.0 24.3 92 1.0 ESE 9 13 5 7 1010.9 1010.5 16.2
25/10:30pm 25.4 29.2 24.1 92 0.9 ESE 11 15 6 8 1011.0 1010.6 16.2
25/10:00pm 25.5 29.3 24.0 91 1.0 ESE 11 15 6 8 1011.2 1010.8 16.2
25/09:30pm 25.7 29.5 24.1 91 1.1 ESE 11 15 6 8 1011.3 1010.9 16.2
25/09:00pm 25.3 29.1 24.0 92 0.9 ESE 11 13 6 7 1011.5 1011.1 16.2
25/08:30pm 25.2 29.2 23.7 91 1.0 ESE 9 13 5 7 1011.1 1010.7 16.2
25/08:00pm 25.1 29.1 23.8 92 0.9 ESE 9 11 5 6 1011.1 1010.7 16.2
25/07:30pm 25.5 28.6 23.6 89 1.3 E 13 17 7 9 1010.9 1010.5 16.2
25/07:00pm 25.3 29.4 24.0 92 0.9 E 9 15 5 8 1010.6 1010.2 16.2
25/06:30pm 25.3 29.6 24.3 94 0.7 ESE 9 13 5 7 1010.5 1010.1 16.2
25/06:06pm 25.0 29.5 24.6 98 0.3 E 9 11 5 6 1010.2 1009.8 16.2
25/06:04pm 25.1 29.7 24.7 98 0.3 ESE 9 11 5 6 1010.2 1009.8 16.2
25/06:00pm 25.1 29.7 24.7 98 0.3 ESE 9 11 5 6 1010.2 1009.8 16.2
25/05:30pm 24.8 29.7 24.4 98 0.3 SSW 6 9 3 5 1010.0 1009.6 15.8
25/05:29pm 24.9 29.8 24.3 96 0.4 SSW 6 9 3 5 1010.0 1009.6 15.8
25/05:14pm 24.9 29.2 24.3 96 0.4 WSW 9 13 5 7 1009.9 1009.5 15.8
25/05:08pm 25.1 29.9 24.4 96 0.5 WSW 7 9 4 5 1009.9 1009.5 15.8
25/05:00pm 25.1 29.7 24.2 95 0.6 WSW 7 9 4 5 1009.7 1009.3 15.8
25/04:55pm 25.1 30.0 24.4 96 0.5 SW 6 9 3 5 1009.7 1009.3 15.8
25/04:30pm 25.3 29.0 24.6 96 0.5 NE 13 20 7 11 1010.1 1009.7 15.0
25/04:25pm 25.4 29.5 24.5 95 0.6 NNE 11 17 6 9 1010.0 1009.6 13.8
25/04:07pm 25.2 28.8 24.3 95 0.6 NE 13 19 7 10 1009.8 1009.4 13.6
25/04:00pm 25.0 28.6 24.3 96 0.5 NE 13 19 7 10 1009.7 1009.3 13.6
25/03:52pm 24.9 28.1 24.3 96 0.4 ENE 15 20 8 11 1009.7 1009.3 13.6
25/03:32pm 25.8 29.8 24.4 92 1.0 E 11 39 6 21 1010.0 1009.6 10.0
25/03:30pm 26.7 32.0 25.3 92 1.0 ESE 7 15 4 8 1009.7 1009.3 9.4
25/03:26pm 26.7 31.9 25.1 91 1.1 ESE 7 11 4 6 1009.5 1009.1 9.4
25/03:00pm 26.9 30.3 24.7 88 1.5 E 15 22 8 12 1009.6 1009.2 9.0
25/02:50pm 27.5 32.3 25.1 87 1.7 E 9 13 5 7 1009.5 1009.1 8.4
25/02:30pm 27.7 31.0 24.5 83 2.2 E 15 20 8 11 1009.6 1009.2 8.4
25/02:00pm 27.0 31.0 25.0 89 1.4 E 13 15 7 8 1010.3 1009.9 8.4
25/01:44pm 26.7 30.1 25.3 92 1.0 ESE 17 24 9 13 1010.4 1010.0 8.4
25/01:30pm 26.5 29.9 25.2 92 0.9 E 17 28 9 15 1010.7 1010.3 8.4
25/01:24pm 26.8 30.9 25.2 91 1.1 E 13 22 7 12 1010.7 1010.3 8.2
25/01:10pm 26.9 30.1 24.9 89 1.4 ESE 17 24 9 13 1010.6 1010.2 8.0
25/01:00pm 26.5 28.8 25.1 92 1.0 ESE 22 37 12 20 1010.7 1010.3 8.0
25/12:48pm 26.6 30.4 25.3 93 0.9 SE 15 26 8 14 1011.1 1010.7 5.2
25/12:39pm 26.5 30.5 25.1 92 1.0 ESE 13 19 7 10 1010.9 1010.5 4.0
25/12:30pm 26.0 29.2 25.0 94 0.7 ESE 17 20 9 11 1011.0 1010.6 4.0
25/12:17pm 25.3 25.7 23.8 91 1.0 E 28 54 15 29 1011.3 1010.9 3.8
25/12:11pm 26.1 27.3 23.9 88 1.5 E 24 54 13 29 1011.6 1011.2 1.2
25/12:00pm 27.9 30.4 24.5 82 2.4 ESE 19 28 10 15 1011.3 1010.9 0.2
25/11:30am 27.8 31.3 24.9 84 2.0 ESE 15 20 8 11 1011.8 1011.4 0.2
25/11:00am 27.3 31.0 25.2 88 1.5 SE 15 20 8 11 1012.3 1011.9 0.2
25/10:30am 27.0 31.4 25.1 89 1.3 SE 11 19 6 10 1012.8 1012.4 0.2
25/10:00am 25.7 30.6 24.4 92 0.9 SSW 6 7 3 4 1012.9 1012.5 0.2
25/09:30am 25.5 30.2 24.3 93 0.8 ESE 7 13 4 7 1012.8 1012.4 0.2
25/09:09am 24.7 29.3 24.1 96 0.4 S 7 13 4 7 1012.6 1012.2 0.2
25/09:00am 24.6 29.3 24.0 96 0.4 S 6 7 3 4 1012.3 1011.9 23.0
25/08:48am 24.3 28.6 23.6 96 0.5 SSE 7 9 4 5 1012.5 1012.1 23.0
25/08:30am 24.1 26.6 23.2 95 0.6 SE 15 24 8 13 1012.3 1011.9 23.0
25/08:17am 24.1 24.9 23.1 94 0.7 SE 24 37 13 20 1012.2 1011.8 22.8
25/08:00am 24.0 25.4 23.6 98 0.3 SE 22 32 12 17 1012.1 1011.7 19.0
25/07:42am 24.4 25.3 24.0 98 0.3 E 26 35 14 19 1012.1 1011.7 13.2
25/07:30am 24.4 26.2 23.5 95 0.6 E 20 28 11 15 1011.8 1011.4 8.4
25/07:24am 24.6 27.5 23.9 96 0.5 ESE 15 24 8 13 1011.7 1011.3 6.0
25/07:00am 24.7 27.9 23.7 94 0.7 SSE 13 17 7 9 1011.0 1010.6 5.4
25/06:51am 24.6 27.4 23.7 95 0.6 SSE 15 19 8 10 1011.0 1010.6 5.4
25/06:30am 24.5 27.3 23.6 95 0.6 ESE 15 22 8 12 1010.7 1010.3 5.4
25/06:06am 24.7 25.7 24.1 96 0.4 ESE 26 35 14 19 1010.5 1010.1 4.6
25/06:00am 24.6 25.1 23.9 96 0.5 E 28 41 15 22 1010.5 1010.1 4.2
25/05:50am 24.7 25.7 24.1 96 0.4 E 26 43 14 23 1010.2 1009.8 3.6
25/05:37am 25.4 26.4 24.1 92 0.9 E 26 44 14 24 1010.2 1009.8 1.6
25/05:34am 26.0 28.0 24.0 89 1.4 ESE 20 41 11 22 1010.0 1009.6 1.4
25/05:30am 26.8 29.7 23.9 84 2.0 SE 15 20 8 11 1009.9 1009.5 1.4
25/05:00am 26.9 29.9 23.4 81 2.4 SE 13 19 7 10 1009.5 1009.1 1.4
25/04:30am 26.8 29.8 23.3 81 2.4 SE 13 19 7 10 1009.5 1009.1 1.4
25/04:00am 26.6 29.9 23.2 81 2.3 SSE 11 17 6 9 1009.4 1009.0 1.4
25/03:30am 26.5 29.7 23.1 81 2.3 SSE 11 15 6 8 1009.4 1009.0 1.4
25/03:00am 26.2 29.1 23.1 83 2.1 SSE 13 17 7 9 1009.3 1008.9 1.4
25/02:30am 25.9 29.6 23.3 85 1.8 SE 9 13 5 7 1009.7 1009.3 1.4
25/02:00am 26.0 29.3 23.2 84 1.9 SE 11 15 6 8 1009.7 1009.3 1.4
25/01:30am 26.0 29.8 23.4 85 1.8 SSE 9 11 5 6 1010.1 1009.7 1.4
25/01:00am 26.2 30.0 23.4 84 1.9 SSE 9 11 5 6 1010.5 1010.1 1.4
25/12:30am 26.3 29.7 23.4 84 2.0 SSE 11 13 6 7 1010.5 1010.1 1.4
25/12:00am 26.5 29.5 23.4 83 2.1 SSE 13 15 7 8 1010.8 1010.4 1.4
 
Date/Time
CST
Temp
°C
App
Temp
°C
Dew
Point
°C
Rel
Hum
%
Delta-T
°C
Wind Press
QNH
hPa
Press
MSL
hPa
Rain since
9am
mm
Dir  Spd
km/h
Gust
km/h
Spd
kts
Gust
kts
24/11:30pm 26.1 29.9 23.5 85 1.8 SSE 9 11 5 6 1011.4 1011.0 1.4
24/11:00pm 26.3 29.7 23.4 84 2.0 SSE 11 13 6 7 1011.7 1011.3 1.4
24/10:30pm 26.0 30.0 23.7 87 1.6 SSE 9 9 5 5 1012.2 1011.8 1.4
24/10:00pm 26.2 30.7 23.9 87 1.6 SSE 7 9 4 5 1012.5 1012.1 1.4
24/09:30pm 26.4 30.3 23.6 84 1.9 SSE 9 11 5 6 1012.6 1012.2 1.4
24/09:00pm 26.5 30.0 23.6 84 2.0 SE 11 13 6 7 1012.6 1012.2 1.4
24/08:30pm 26.6 30.4 23.5 83 2.1 SE 9 11 5 6 1012.4 1012.0 1.4
24/08:00pm 26.9 29.9 23.4 81 2.4 SE 13 15 7 8 1011.9 1011.5 1.4
24/07:30pm 27.6 30.5 23.1 76 3.1 ESE 13 17 7 9 1011.7 1011.3 1.4
24/07:00pm 27.7 30.5 23.6 78 2.8 ESE 15 20 8 11 1011.3 1010.9 1.4
24/06:30pm 27.5 30.3 23.6 79 2.7 ESE 15 20 8 11 1011.0 1010.6 1.4
24/06:00pm 27.8 30.0 23.3 76 3.1 ESE 17 22 9 12 1010.5 1010.1 1.4
24/05:30pm 28.2 29.8 23.2 74 3.4 ESE 20 26 11 14 1010.4 1010.0 1.4
24/05:00pm 28.5 30.3 23.6 75 3.4 ESE 20 26 11 14 1010.1 1009.7 1.4
24/04:30pm 28.7 29.7 23.5 73 3.6 ESE 24 30 13 16 1009.8 1009.4 1.4
24/04:00pm 29.0 30.0 23.5 72 3.8 ESE 24 32 13 17 1009.7 1009.3 1.4
24/03:30pm 29.1 30.0 23.4 71 3.9 ESE 24 33 13 18 1009.7 1009.3 1.4
24/03:00pm 29.8 30.9 23.7 70 4.2 ESE 24 33 13 18 1009.8 1009.4 1.4
24/02:30pm 30.2 30.2 23.1 65 4.9 ESE 28 41 15 22 1010.0 1009.6 1.4
24/02:00pm 29.9 29.3 23.4 68 4.5 ESE 32 43 17 23 1010.3 1009.9 1.4
24/01:30pm 30.4 31.0 24.1 69 4.4 E 28 43 15 23 1010.6 1010.2 1.4
24/01:00pm 30.4 30.4 23.8 68 4.6 E 30 43 16 23 1010.9 1010.5 1.4
24/12:30pm 30.7 30.5 24.1 68 4.6 E 32 41 17 22 1011.4 1011.0 1.2
24/12:00pm 30.2 31.8 24.5 71 4.0 ESE 24 43 13 23 1011.7 1011.3 1.2
24/11:30am 28.6 30.1 24.4 78 2.9 ESE 24 37 13 20 1012.0 1011.6 1.2
24/11:20am 28.7 30.7 24.5 78 2.9 E 22 35 12 19 1012.1 1011.7 1.2
24/11:00am 27.2 28.0 24.5 85 1.9 E 28 43 15 23 1012.3 1011.9 0.4
24/10:55am 28.0 29.1 24.4 81 2.5 E 26 43 14 23 1012.2 1011.8 0.2
24/10:30am 29.8 33.1 25.1 76 3.3 ESE 17 24 9 13 1012.3 1011.9 0.0
24/10:00am 29.2 32.9 25.2 79 2.8 ESE 15 24 8 13 1012.3 1011.9 0.0
24/09:30am 28.2 30.9 24.2 79 2.8 E 17 22 9 12 1012.3 1011.9 0.0
24/09:00am 27.7 30.8 24.2 81 2.4 E 15 24 8 13 1012.3 1011.9 3.0
24/08:30am 27.6 29.6 24.0 81 2.5 E 20 32 11 17 1012.2 1011.8 3.0
24/08:00am 26.5 28.3 24.2 87 1.6 E 22 32 12 17 1012.1 1011.7 3.0
24/07:30am 25.3 28.7 24.0 92 0.9 ESE 13 17 7 9 1011.8 1011.4 3.0
24/07:00am 24.8 27.0 23.9 95 0.6 ESE 19 24 10 13 1011.5 1011.1 3.0
24/06:54am 24.8 26.8 23.9 95 0.6 ESE 20 30 11 16 1011.3 1010.9 3.0
24/06:36am 24.7 25.6 24.0 96 0.5 ESE 26 37 14 20 1011.0 1010.6 3.0
24/06:30am 24.6 25.1 24.0 96 0.4 ESE 28 41 15 22 1011.0 1010.6 3.0
24/06:03am 25.4 27.1 24.7 96 0.5 E 24 35 13 19 1010.8 1010.4 1.2
24/06:00am 25.5 27.5 24.6 95 0.6 E 22 33 12 18 1010.7 1010.3 1.0
24/05:54am 26.0 28.9 24.4 91 1.1 ESE 17 33 9 18 1010.6 1010.2 0.6
24/05:30am 26.9 30.0 23.6 82 2.3 SE 13 20 7 11 1010.3 1009.9 0.2
24/05:00am 26.4 29.8 23.3 83 2.1 SE 11 17 6 9 1010.2 1009.8 0.2
24/04:30am 26.5 29.5 23.3 82 2.2 SE 13 19 7 10 1010.1 1009.7 0.2
24/04:00am 26.6 29.5 23.2 81 2.3 SE 13 19 7 10 1009.9 1009.5 0.2
24/03:30am 26.6 29.5 23.1 81 2.4 SSE 13 17 7 9 1009.8 1009.4 0.2
24/03:00am 26.6 29.2 22.6 78 2.7 SSE 13 20 7 11 1010.1 1009.7 0.2
24/02:30am 26.5 29.4 22.5 78 2.7 SSE 11 17 6 9 1010.3 1009.9 0.2
24/02:00am 26.4 29.3 22.4 78 2.7 SSE 11 15 6 8 1010.7 1010.3 0.2
24/01:30am 26.5 29.2 22.2 77 2.9 SSE 11 15 6 8 1011.0 1010.6 0.2
24/01:00am 26.7 28.9 21.9 75 3.2 SSE 13 17 7 9 1011.3 1010.9 0.2
24/12:30am 27.0 29.0 21.6 72 3.6 SSE 13 17 7 9 1011.7 1011.3 0.2
24/12:00am 27.3 29.3 21.5 70 3.9 SSE 13 22 7 12 1011.8 1011.4 0.2
 
Date/Time
CST
Temp
°C
App
Temp
°C
Dew
Point
°C
Rel
Hum
%
Delta-T
°C
Wind Press
QNH
hPa
Press
MSL
hPa
Rain since
9am
mm
Dir  Spd
km/h
Gust
km/h
Spd
kts
Gust
kts
23/11:30pm 27.2 29.3 21.7 72 3.7 SE 13 17 7 9 1012.0 1011.6 0.2
23/11:00pm 27.4 29.3 22.1 73 3.6 SE 15 20 8 11 1012.3 1011.9 0.2
23/10:30pm 27.7 29.0 21.7 70 4.0 SE 17 24 9 13 1012.5 1012.1 0.2
23/10:00pm 27.8 29.0 21.4 68 4.3 SE 17 26 9 14 1012.7 1012.3 0.2
23/09:30pm 27.6 28.8 21.5 69 4.1 SE 17 24 9 13 1012.6 1012.2 0.2
23/09:00pm 27.5 29.2 21.7 70 3.9 SSE 15 20 8 11 1012.6 1012.2 0.2
23/08:30pm 27.3 29.5 21.8 72 3.7 SSE 13 19 7 10 1012.3 1011.9 0.2
23/08:00pm 27.4 28.8 21.9 72 3.7 SSE 17 22 9 12 1011.9 1011.5 0.2
23/07:30pm 27.3 29.8 22.4 74 3.3 SSE 13 17 7 9 1011.4 1011.0 0.2
23/07:00pm 27.5 29.4 22.8 75 3.2 SE 17 28 9 15 1011.2 1010.8 0.2
23/06:30pm 27.6 29.7 23.1 76 3.1 SE 17 24 9 13 1011.0 1010.6 0.2
23/06:00pm 28.0 28.9 22.7 73 3.6 SE 22 30 12 16 1010.7 1010.3 0.2
23/05:30pm 28.5 28.6 22.6 70 4.0 SE 26 35 14 19 1010.4 1010.0 0.2
23/05:00pm 28.7 29.3 22.8 70 4.0 SE 24 35 13 19 1010.1 1009.7 0.2
23/04:30pm 29.4 28.9 22.2 65 4.9 SE 28 37 15 20 1009.9 1009.5 0.2
23/04:00pm 29.4 29.7 23.0 68 4.4 SE 26 39 14 21 1009.8 1009.4 0.2
23/03:30pm 29.4 28.9 22.8 67 4.5 SE 30 41 16 22 1009.8 1009.4 0.2
23/03:09pm 29.7 29.5 22.7 66 4.8 SE 28 46 15 25 1009.9 1009.5 0.2
23/03:08pm 29.7 29.9 22.8 66 4.7 SE 26 37 14 20 1009.9 1009.5 0.2
23/03:00pm 28.7 28.7 23.0 71 3.9 SE 28 35 15 19 1010.0 1009.6 0.2
23/02:30pm 27.4 27.6 24.7 85 1.9 ESE 32 43 17 23 1010.3 1009.9 0.2
23/02:28pm 27.8 27.7 24.2 81 2.5 ESE 32 43 17 23 1010.3 1009.9 0.2
23/02:00pm 30.8 31.2 23.1 63 5.3 ESE 26 41 14 22 1010.2 1009.8 0.2
23/01:30pm 31.2 30.4 22.3 59 6.1 ESE 30 41 16 22 1010.6 1010.2 0.2
23/01:00pm 30.8 29.6 22.6 61 5.6 ESE 33 43 18 23 1010.9 1010.5 0.2
23/12:30pm 30.7 30.3 23.0 63 5.3 ESE 30 41 16 22 1011.1 1010.7 0.2
23/12:00pm 30.4 29.9 23.5 66 4.8 ESE 32 43 17 23 1011.4 1011.0 0.2
23/11:30am 30.5 31.8 24.7 71 4.1 ESE 26 37 14 20 1011.8 1011.4 0.2
23/11:00am 29.6 30.7 24.3 73 3.7 ESE 26 35 14 19 1012.2 1011.8 0.2
23/10:30am 29.6 30.7 23.7 70 4.1 ESE 24 30 13 16 1012.4 1012.0 0.2
23/10:00am 28.6 30.0 22.9 71 3.9 ESE 20 28 11 15 1012.5 1012.1 0.2
23/09:30am 29.2 30.5 22.6 67 4.5 ESE 20 33 11 18 1012.4 1012.0 0.0
23/09:00am 27.3 29.0 23.4 79 2.7 ESE 20 30 11 16 1012.5 1012.1 0.2
23/08:30am 26.4 27.1 23.6 84 1.9 E 26 35 14 19 1012.6 1012.2 0.2
23/08:13am 25.9 26.1 23.4 86 1.7 E 28 48 15 26 1012.5 1012.1 0.2
23/08:00am 26.3 29.5 24.3 89 1.4 E 15 24 8 13 1012.1 1011.7 0.2
23/07:30am 26.2 27.6 24.2 89 1.4 ESE 24 32 13 17 1011.8 1011.4 0.2
23/07:00am 26.0 27.2 23.2 84 1.9 ESE 22 33 12 18 1011.2 1010.8 0.2
23/06:30am 26.7 30.3 23.8 84 2.0 SE 11 15 6 8 1010.6 1010.2 0.2
23/06:00am 26.7 29.5 23.6 83 2.1 SE 15 20 8 11 1010.2 1009.8 0.2
23/05:30am 26.4 29.5 23.5 84 2.0 SSE 13 19 7 10 1009.9 1009.5 0.2
23/05:00am 26.5 29.2 23.4 83 2.1 SSE 15 19 8 10 1009.7 1009.3 0.2
23/04:30am 26.6 29.3 23.5 83 2.1 SE 15 20 8 11 1009.7 1009.3 0.2
23/04:00am 26.5 29.6 23.6 84 2.0 SE 13 20 7 11 1009.5 1009.1 0.2
23/03:30am 26.6 29.7 23.5 83 2.1 SSE 13 20 7 11 1009.6 1009.2 0.2
23/03:00am 26.3 29.8 23.5 84 1.9 SSE 11 15 6 8 1010.0 1009.6 0.2
23/02:30am 26.2 29.6 23.3 84 2.0 SSE 11 15 6 8 1010.4 1010.0 0.2

Other Formats:

Comma delimited format used in spreadsheet applications
http://www.bom.gov.au/fwo/IDD60801/IDD60801.94150.axf

JavaScript Object Notation format (JSON) in row-major order
http://www.bom.gov.au/fwo/IDD60801/IDD60801.94150.json